sensor_id;sensor_type;location;lat;lon;timestamp;P1;durP1;ratioP1;P2;durP2;ratioP2
36653;SDS011;22650;49.350;20.898;2023-01-28T00:00:15;18.05;;;7.88;;
36653;SDS011;22650;49.350;20.898;2023-01-28T00:02:51;18.05;;;9.50;;
36653;SDS011;22650;49.350;20.898;2023-01-28T00:05:24;17.10;;;8.23;;
36653;SDS011;22650;49.350;20.898;2023-01-28T00:08:00;21.77;;;10.32;;
36653;SDS011;22650;49.350;20.898;2023-01-28T00:10:35;22.80;;;8.57;;
36653;SDS011;22650;49.350;20.898;2023-01-28T00:13:10;21.63;;;9.32;;
36653;SDS011;22650;49.350;20.898;2023-01-28T00:15:45;26.00;;;10.18;;
36653;SDS011;22650;49.350;20.898;2023-01-28T00:18:29;28.55;;;10.55;;
36653;SDS011;22650;49.350;20.898;2023-01-28T00:21:05;23.63;;;10.07;;
36653;SDS011;22650;49.350;20.898;2023-01-28T00:23:40;27.48;;;9.15;;
36653;SDS011;22650;49.350;20.898;2023-01-28T00:26:15;25.27;;;10.48;;
36653;SDS011;22650;49.350;20.898;2023-01-28T00:28:49;25.90;;;9.35;;
36653;SDS011;22650;49.350;20.898;2023-01-28T00:31:24;27.65;;;10.88;;
36653;SDS011;22650;49.350;20.898;2023-01-28T00:34:00;23.48;;;10.02;;
36653;SDS011;22650;49.350;20.898;2023-01-28T00:36:33;24.73;;;10.35;;
36653;SDS011;22650;49.350;20.898;2023-01-28T00:39:10;25.92;;;9.32;;
36653;SDS011;22650;49.350;20.898;2023-01-28T00:41:46;23.60;;;9.57;;
36653;SDS011;22650;49.350;20.898;2023-01-28T00:44:20;24.77;;;10.18;;
36653;SDS011;22650;49.350;20.898;2023-01-28T00:46:54;23.00;;;9.65;;
36653;SDS011;22650;49.350;20.898;2023-01-28T00:49:29;22.88;;;10.30;;
36653;SDS011;22650;49.350;20.898;2023-01-28T00:52:03;20.98;;;10.68;;
36653;SDS011;22650;49.350;20.898;2023-01-28T00:54:37;20.92;;;8.82;;
36653;SDS011;22650;49.350;20.898;2023-01-28T00:57:11;20.80;;;8.50;;
36653;SDS011;22650;49.350;20.898;2023-01-28T00:59:45;23.35;;;9.23;;
36653;SDS011;22650;49.350;20.898;2023-01-28T01:02:18;24.23;;;8.73;;
36653;SDS011;22650;49.350;20.898;2023-01-28T01:04:54;23.48;;;9.82;;
36653;SDS011;22650;49.350;20.898;2023-01-28T01:07:30;24.65;;;10.10;;
36653;SDS011;22650;49.350;20.898;2023-01-28T01:10:13;24.27;;;10.07;;
36653;SDS011;22650;49.350;20.898;2023-01-28T01:12:49;27.08;;;10.77;;
36653;SDS011;22650;49.350;20.898;2023-01-28T01:15:23;23.52;;;10.45;;
36653;SDS011;22650;49.350;20.898;2023-01-28T01:17:57;20.45;;;9.55;;
36653;SDS011;22650;49.350;20.898;2023-01-28T01:20:33;22.17;;;8.93;;
36653;SDS011;22650;49.350;20.898;2023-01-28T01:23:10;19.67;;;7.88;;
36653;SDS011;22650;49.350;20.898;2023-01-28T01:25:44;26.95;;;10.13;;
36653;SDS011;22650;49.350;20.898;2023-01-28T01:28:19;21.08;;;9.68;;
36653;SDS011;22650;49.350;20.898;2023-01-28T01:30:57;20.63;;;8.88;;
36653;SDS011;22650;49.350;20.898;2023-01-28T01:33:32;21.92;;;9.35;;
36653;SDS011;22650;49.350;20.898;2023-01-28T01:36:09;23.08;;;10.02;;
36653;SDS011;22650;49.350;20.898;2023-01-28T01:38:43;20.92;;;9.00;;
36653;SDS011;22650;49.350;20.898;2023-01-28T01:41:29;22.38;;;9.77;;
36653;SDS011;22650;49.350;20.898;2023-01-28T01:47:38;22.08;;;10.15;;
36653;SDS011;22650;49.350;20.898;2023-01-28T01:50:24;24.00;;;10.02;;
36653;SDS011;22650;49.350;20.898;2023-01-28T01:53:03;28.25;;;11.70;;
36653;SDS011;22650;49.350;20.898;2023-01-28T01:55:41;27.98;;;12.27;;
36653;SDS011;22650;49.350;20.898;2023-01-28T01:58:18;30.27;;;11.90;;
36653;SDS011;22650;49.350;20.898;2023-01-28T02:00:55;29.98;;;11.25;;
36653;SDS011;22650;49.350;20.898;2023-01-28T02:03:30;44.88;;;17.27;;
36653;SDS011;22650;49.350;20.898;2023-01-28T02:06:10;42.53;;;15.48;;
36653;SDS011;22650;49.350;20.898;2023-01-28T02:08:48;39.85;;;16.52;;
36653;SDS011;22650;49.350;20.898;2023-01-28T02:11:23;78.90;;;28.83;;
36653;SDS011;22650;49.350;20.898;2023-01-28T02:14:00;69.20;;;22.75;;
36653;SDS011;22650;49.350;20.898;2023-01-28T02:16:40;49.20;;;18.58;;
36653;SDS011;22650;49.350;20.898;2023-01-28T02:20:12;24.77;;;11.27;;
36653;SDS011;22650;49.350;20.898;2023-01-28T02:23:02;31.30;;;12.23;;
36653;SDS011;22650;49.350;20.898;2023-01-28T02:26:24;30.20;;;11.85;;
36653;SDS011;22650;49.350;20.898;2023-01-28T02:29:11;33.55;;;12.52;;
36653;SDS011;22650;49.350;20.898;2023-01-28T02:31:52;33.40;;;14.65;;
36653;SDS011;22650;49.350;20.898;2023-01-28T02:34:33;34.30;;;13.73;;
36653;SDS011;22650;49.350;20.898;2023-01-28T02:37:13;28.08;;;11.82;;
36653;SDS011;22650;49.350;20.898;2023-01-28T02:39:52;28.52;;;13.20;;
36653;SDS011;22650;49.350;20.898;2023-01-28T02:42:30;35.63;;;11.95;;
36653;SDS011;22650;49.350;20.898;2023-01-28T02:45:12;34.35;;;13.75;;
36653;SDS011;22650;49.350;20.898;2023-01-28T02:47:50;27.30;;;13.13;;
36653;SDS011;22650;49.350;20.898;2023-01-28T02:50:33;36.72;;;15.75;;
36653;SDS011;22650;49.350;20.898;2023-01-28T02:53:16;31.83;;;14.23;;
36653;SDS011;22650;49.350;20.898;2023-01-28T02:56:17;31.13;;;13.75;;
36653;SDS011;22650;49.350;20.898;2023-01-28T02:59:05;32.80;;;13.10;;
36653;SDS011;22650;49.350;20.898;2023-01-28T03:02:11;29.00;;;14.15;;
36653;SDS011;22650;49.350;20.898;2023-01-28T03:04:52;26.23;;;12.43;;
36653;SDS011;22650;49.350;20.898;2023-01-28T03:07:33;26.27;;;10.82;;
36653;SDS011;22650;49.350;20.898;2023-01-28T03:10:10;29.15;;;11.38;;
36653;SDS011;22650;49.350;20.898;2023-01-28T03:12:48;33.33;;;12.23;;
36653;SDS011;22650;49.350;20.898;2023-01-28T03:15:42;31.98;;;12.32;;
36653;SDS011;22650;49.350;20.898;2023-01-28T03:18:40;31.75;;;12.10;;
36653;SDS011;22650;49.350;20.898;2023-01-28T03:21:35;34.53;;;12.57;;
36653;SDS011;22650;49.350;20.898;2023-01-28T03:24:37;29.57;;;11.70;;
36653;SDS011;22650;49.350;20.898;2023-01-28T03:27:33;29.02;;;11.43;;
36653;SDS011;22650;49.350;20.898;2023-01-28T03:30:33;29.63;;;11.55;;
36653;SDS011;22650;49.350;20.898;2023-01-28T03:33:41;33.72;;;12.63;;
36653;SDS011;22650;49.350;20.898;2023-01-28T03:36:33;31.73;;;13.25;;
36653;SDS011;22650;49.350;20.898;2023-01-28T03:39:38;28.45;;;12.18;;
36653;SDS011;22650;49.350;20.898;2023-01-28T03:42:14;29.55;;;11.50;;
36653;SDS011;22650;49.350;20.898;2023-01-28T03:44:59;31.63;;;9.77;;
36653;SDS011;22650;49.350;20.898;2023-01-28T03:47:37;29.80;;;11.95;;
36653;SDS011;22650;49.350;20.898;2023-01-28T03:50:17;29.38;;;12.43;;
36653;SDS011;22650;49.350;20.898;2023-01-28T03:53:01;24.55;;;11.05;;
36653;SDS011;22650;49.350;20.898;2023-01-28T03:55:55;29.45;;;12.05;;
36653;SDS011;22650;49.350;20.898;2023-01-28T03:58:29;30.77;;;12.20;;
36653;SDS011;22650;49.350;20.898;2023-01-28T04:01:19;28.63;;;11.05;;
36653;SDS011;22650;49.350;20.898;2023-01-28T04:03:54;30.30;;;12.73;;
36653;SDS011;22650;49.350;20.898;2023-01-28T04:06:32;25.88;;;11.10;;
36653;SDS011;22650;49.350;20.898;2023-01-28T04:09:12;28.58;;;11.38;;
36653;SDS011;22650;49.350;20.898;2023-01-28T04:11:58;30.35;;;11.88;;
36653;SDS011;22650;49.350;20.898;2023-01-28T04:14:37;34.30;;;12.13;;
36653;SDS011;22650;49.350;20.898;2023-01-28T04:17:16;27.58;;;10.93;;
36653;SDS011;22650;49.350;20.898;2023-01-28T04:19:50;32.03;;;12.68;;
36653;SDS011;22650;49.350;20.898;2023-01-28T04:22:27;33.60;;;12.70;;
36653;SDS011;22650;49.350;20.898;2023-01-28T04:25:00;34.28;;;13.38;;
36653;SDS011;22650;49.350;20.898;2023-01-28T04:27:34;27.38;;;11.27;;
36653;SDS011;22650;49.350;20.898;2023-01-28T04:30:17;35.58;;;12.23;;
36653;SDS011;22650;49.350;20.898;2023-01-28T04:33:04;31.33;;;12.32;;
36653;SDS011;22650;49.350;20.898;2023-01-28T04:35:45;37.60;;;13.30;;
36653;SDS011;22650;49.350;20.898;2023-01-28T04:38:42;40.15;;;13.68;;
36653;SDS011;22650;49.350;20.898;2023-01-28T04:41:43;35.70;;;13.00;;
36653;SDS011;22650;49.350;20.898;2023-01-28T04:44:25;23.20;;;11.77;;
36653;SDS011;22650;49.350;20.898;2023-01-28T04:47:20;28.15;;;11.30;;
36653;SDS011;22650;49.350;20.898;2023-01-28T04:50:19;33.83;;;11.82;;
36653;SDS011;22650;49.350;20.898;2023-01-28T04:53:13;30.73;;;11.30;;
36653;SDS011;22650;49.350;20.898;2023-01-28T04:56:02;28.27;;;11.20;;
36653;SDS011;22650;49.350;20.898;2023-01-28T04:58:43;26.75;;;10.68;;
36653;SDS011;22650;49.350;20.898;2023-01-28T05:01:20;27.92;;;11.23;;
36653;SDS011;22650;49.350;20.898;2023-01-28T05:03:54;31.17;;;11.73;;
36653;SDS011;22650;49.350;20.898;2023-01-28T05:06:30;32.70;;;11.02;;
36653;SDS011;22650;49.350;20.898;2023-01-28T05:09:10;32.33;;;11.95;;
36653;SDS011;22650;49.350;20.898;2023-01-28T05:11:46;24.23;;;10.35;;
36653;SDS011;22650;49.350;20.898;2023-01-28T05:14:20;31.90;;;12.73;;
36653;SDS011;22650;49.350;20.898;2023-01-28T05:17:01;28.10;;;10.70;;
36653;SDS011;22650;49.350;20.898;2023-01-28T05:19:36;34.03;;;12.32;;
36653;SDS011;22650;49.350;20.898;2023-01-28T05:22:16;27.75;;;11.57;;
36653;SDS011;22650;49.350;20.898;2023-01-28T05:25:09;33.92;;;11.43;;
36653;SDS011;22650;49.350;20.898;2023-01-28T05:27:49;28.85;;;11.30;;
36653;SDS011;22650;49.350;20.898;2023-01-28T05:30:23;32.85;;;11.93;;
36653;SDS011;22650;49.350;20.898;2023-01-28T05:32:57;29.67;;;10.85;;
36653;SDS011;22650;49.350;20.898;2023-01-28T05:35:31;32.03;;;12.23;;
36653;SDS011;22650;49.350;20.898;2023-01-28T05:38:07;27.80;;;12.55;;
36653;SDS011;22650;49.350;20.898;2023-01-28T05:40:41;34.88;;;13.50;;
36653;SDS011;22650;49.350;20.898;2023-01-28T05:43:17;30.35;;;12.70;;
36653;SDS011;22650;49.350;20.898;2023-01-28T05:46:11;32.50;;;12.18;;
36653;SDS011;22650;49.350;20.898;2023-01-28T05:49:14;25.73;;;11.32;;
36653;SDS011;22650;49.350;20.898;2023-01-28T05:52:11;27.85;;;11.35;;
36653;SDS011;22650;49.350;20.898;2023-01-28T05:54:44;29.23;;;10.93;;
36653;SDS011;22650;49.350;20.898;2023-01-28T05:57:18;29.90;;;10.30;;
36653;SDS011;22650;49.350;20.898;2023-01-28T05:59:55;25.38;;;11.07;;
36653;SDS011;22650;49.350;20.898;2023-01-28T06:02:29;23.23;;;10.15;;
36653;SDS011;22650;49.350;20.898;2023-01-28T06:05:04;30.38;;;10.48;;
36653;SDS011;22650;49.350;20.898;2023-01-28T06:07:38;26.23;;;11.05;;
36653;SDS011;22650;49.350;20.898;2023-01-28T06:13:16;30.92;;;11.10;;
36653;SDS011;22650;49.350;20.898;2023-01-28T06:16:37;33.38;;;12.85;;
36653;SDS011;22650;49.350;20.898;2023-01-28T06:19:29;24.15;;;10.52;;
36653;SDS011;22650;49.350;20.898;2023-01-28T06:22:03;32.00;;;11.43;;
36653;SDS011;22650;49.350;20.898;2023-01-28T06:24:38;26.20;;;9.68;;
36653;SDS011;22650;49.350;20.898;2023-01-28T06:27:18;33.97;;;11.23;;
36653;SDS011;22650;49.350;20.898;2023-01-28T06:29:52;30.13;;;12.20;;
36653;SDS011;22650;49.350;20.898;2023-01-28T06:32:28;36.08;;;12.82;;
36653;SDS011;22650;49.350;20.898;2023-01-28T06:35:04;27.13;;;11.27;;
36653;SDS011;22650;49.350;20.898;2023-01-28T06:37:42;31.88;;;11.48;;
36653;SDS011;22650;49.350;20.898;2023-01-28T06:47:10;32.80;;;11.88;;
36653;SDS011;22650;49.350;20.898;2023-01-28T06:49:49;28.67;;;11.55;;
36653;SDS011;22650;49.350;20.898;2023-01-28T06:52:28;30.33;;;12.60;;
36653;SDS011;22650;49.350;20.898;2023-01-28T06:55:05;39.05;;;13.13;;
36653;SDS011;22650;49.350;20.898;2023-01-28T06:58:30;40.38;;;13.15;;
36653;SDS011;22650;49.350;20.898;2023-01-28T07:01:09;33.28;;;13.15;;
36653;SDS011;22650;49.350;20.898;2023-01-28T07:12:39;28.00;;;12.57;;
36653;SDS011;22650;49.350;20.898;2023-01-28T07:21:16;31.52;;;11.32;;
36653;SDS011;22650;49.350;20.898;2023-01-28T07:28:36;27.08;;;10.95;;
36653;SDS011;22650;49.350;20.898;2023-01-28T07:58:55;31.20;;;12.10;;
36653;SDS011;22650;49.350;20.898;2023-01-28T08:01:33;23.90;;;11.15;;
36653;SDS011;22650;49.350;20.898;2023-01-28T08:04:07;30.48;;;11.45;;
36653;SDS011;22650;49.350;20.898;2023-01-28T08:07:00;27.60;;;11.55;;
36653;SDS011;22650;49.350;20.898;2023-01-28T08:09:53;32.67;;;12.38;;
36653;SDS011;22650;49.350;20.898;2023-01-28T08:12:29;31.45;;;12.23;;
36653;SDS011;22650;49.350;20.898;2023-01-28T08:15:05;23.90;;;11.27;;
36653;SDS011;22650;49.350;20.898;2023-01-28T08:17:40;24.73;;;9.80;;
36653;SDS011;22650;49.350;20.898;2023-01-28T08:20:15;25.98;;;10.82;;
36653;SDS011;22650;49.350;20.898;2023-01-28T08:22:50;22.92;;;9.88;;
36653;SDS011;22650;49.350;20.898;2023-01-28T08:25:24;28.65;;;10.25;;
36653;SDS011;22650;49.350;20.898;2023-01-28T08:27:58;20.88;;;8.57;;
36653;SDS011;22650;49.350;20.898;2023-01-28T08:30:31;21.98;;;10.13;;
36653;SDS011;22650;49.350;20.898;2023-01-28T08:33:06;21.40;;;8.85;;
36653;SDS011;22650;49.350;20.898;2023-01-28T08:35:41;23.55;;;10.35;;
36653;SDS011;22650;49.350;20.898;2023-01-28T08:38:16;23.80;;;9.93;;
36653;SDS011;22650;49.350;20.898;2023-01-28T08:40:50;23.25;;;8.75;;
36653;SDS011;22650;49.350;20.898;2023-01-28T08:43:26;24.25;;;11.10;;
36653;SDS011;22650;49.350;20.898;2023-01-28T08:45:59;29.08;;;11.13;;
36653;SDS011;22650;49.350;20.898;2023-01-28T08:48:33;24.77;;;10.70;;
36653;SDS011;22650;49.350;20.898;2023-01-28T08:51:09;24.05;;;10.55;;
36653;SDS011;22650;49.350;20.898;2023-01-28T08:53:44;20.90;;;8.50;;
36653;SDS011;22650;49.350;20.898;2023-01-28T08:56:17;20.38;;;10.07;;
36653;SDS011;22650;49.350;20.898;2023-01-28T08:58:51;25.35;;;10.20;;
36653;SDS011;22650;49.350;20.898;2023-01-28T09:01:25;22.80;;;10.82;;
36653;SDS011;22650;49.350;20.898;2023-01-28T09:04:00;19.63;;;9.50;;
36653;SDS011;22650;49.350;20.898;2023-01-28T09:06:33;21.63;;;9.95;;
36653;SDS011;22650;49.350;20.898;2023-01-28T09:09:08;17.00;;;9.13;;
36653;SDS011;22650;49.350;20.898;2023-01-28T09:11:42;19.30;;;8.95;;
36653;SDS011;22650;49.350;20.898;2023-01-28T09:14:16;20.15;;;7.55;;
36653;SDS011;22650;49.350;20.898;2023-01-28T09:16:50;25.27;;;8.98;;
36653;SDS011;22650;49.350;20.898;2023-01-28T09:19:23;19.40;;;7.90;;
36653;SDS011;22650;49.350;20.898;2023-01-28T09:21:57;18.50;;;7.65;;
36653;SDS011;22650;49.350;20.898;2023-01-28T09:24:32;19.90;;;7.78;;
36653;SDS011;22650;49.350;20.898;2023-01-28T09:27:09;15.73;;;6.93;;
36653;SDS011;22650;49.350;20.898;2023-01-28T09:29:43;20.65;;;8.48;;
36653;SDS011;22650;49.350;20.898;2023-01-28T09:32:16;22.38;;;9.35;;
36653;SDS011;22650;49.350;20.898;2023-01-28T09:34:50;22.80;;;9.32;;
36653;SDS011;22650;49.350;20.898;2023-01-28T09:37:24;19.52;;;8.30;;
36653;SDS011;22650;49.350;20.898;2023-01-28T09:39:59;22.65;;;8.45;;
36653;SDS011;22650;49.350;20.898;2023-01-28T09:42:37;21.05;;;7.90;;
36653;SDS011;22650;49.350;20.898;2023-01-28T09:45:20;25.00;;;11.23;;
36653;SDS011;22650;49.350;20.898;2023-01-28T09:47:57;18.17;;;7.40;;
36653;SDS011;22650;49.350;20.898;2023-01-28T09:50:34;14.90;;;6.68;;
36653;SDS011;22650;49.350;20.898;2023-01-28T09:53:25;19.70;;;9.43;;
36653;SDS011;22650;49.350;20.898;2023-01-28T09:56:17;19.50;;;8.10;;
36653;SDS011;22650;49.350;20.898;2023-01-28T09:59:01;21.85;;;7.35;;
36653;SDS011;22650;49.350;20.898;2023-01-28T10:01:52;23.50;;;9.75;;
36653;SDS011;22650;49.350;20.898;2023-01-28T10:04:37;21.38;;;8.20;;
36653;SDS011;22650;49.350;20.898;2023-01-28T10:07:30;18.17;;;7.82;;
36653;SDS011;22650;49.350;20.898;2023-01-28T10:10:25;18.05;;;8.10;;
36653;SDS011;22650;49.350;20.898;2023-01-28T10:13:09;14.82;;;7.50;;
36653;SDS011;22650;49.350;20.898;2023-01-28T10:16:04;24.70;;;9.27;;
36653;SDS011;22650;49.350;20.898;2023-01-28T10:18:45;22.08;;;8.50;;
36653;SDS011;22650;49.350;20.898;2023-01-28T10:21:27;16.30;;;7.03;;
36653;SDS011;22650;49.350;20.898;2023-01-28T10:24:23;20.63;;;8.23;;
36653;SDS011;22650;49.350;20.898;2023-01-28T10:27:07;20.80;;;8.23;;
36653;SDS011;22650;49.350;20.898;2023-01-28T10:29:46;21.00;;;7.55;;
36653;SDS011;22650;49.350;20.898;2023-01-28T10:32:22;20.08;;;8.00;;
36653;SDS011;22650;49.350;20.898;2023-01-28T10:35:03;15.68;;;6.75;;
36653;SDS011;22650;49.350;20.898;2023-01-28T10:37:39;21.85;;;8.95;;
36653;SDS011;22650;49.350;20.898;2023-01-28T10:40:14;19.30;;;7.82;;
36653;SDS011;22650;49.350;20.898;2023-01-28T10:42:49;21.80;;;8.32;;
36653;SDS011;22650;49.350;20.898;2023-01-28T10:45:24;16.73;;;7.82;;
36653;SDS011;22650;49.350;20.898;2023-01-28T10:48:02;19.08;;;7.45;;
36653;SDS011;22650;49.350;20.898;2023-01-28T10:50:48;15.98;;;6.47;;
36653;SDS011;22650;49.350;20.898;2023-01-28T10:53:32;18.50;;;7.47;;
36653;SDS011;22650;49.350;20.898;2023-01-28T10:56:10;16.95;;;7.55;;
36653;SDS011;22650;49.350;20.898;2023-01-28T10:58:52;18.52;;;7.38;;
36653;SDS011;22650;49.350;20.898;2023-01-28T11:01:39;15.30;;;6.87;;
36653;SDS011;22650;49.350;20.898;2023-01-28T11:04:17;17.92;;;7.22;;
36653;SDS011;22650;49.350;20.898;2023-01-28T11:06:55;18.02;;;7.65;;
36653;SDS011;22650;49.350;20.898;2023-01-28T11:09:31;17.75;;;7.28;;
36653;SDS011;22650;49.350;20.898;2023-01-28T11:12:11;55.08;;;21.40;;
36653;SDS011;22650;49.350;20.898;2023-01-28T11:15:10;27.88;;;10.85;;
36653;SDS011;22650;49.350;20.898;2023-01-28T11:17:54;22.40;;;8.73;;
36653;SDS011;22650;49.350;20.898;2023-01-28T11:20:33;22.77;;;9.65;;
36653;SDS011;22650;49.350;20.898;2023-01-28T11:23:16;20.55;;;9.07;;
36653;SDS011;22650;49.350;20.898;2023-01-28T11:25:59;19.52;;;7.63;;
36653;SDS011;22650;49.350;20.898;2023-01-28T11:28:38;14.52;;;6.65;;
36653;SDS011;22650;49.350;20.898;2023-01-28T11:31:17;32.08;;;10.40;;
36653;SDS011;22650;49.350;20.898;2023-01-28T11:33:55;17.83;;;7.65;;
36653;SDS011;22650;49.350;20.898;2023-01-28T11:36:31;19.55;;;7.03;;
36653;SDS011;22650;49.350;20.898;2023-01-28T11:39:15;23.85;;;7.93;;
36653;SDS011;22650;49.350;20.898;2023-01-28T11:41:52;21.80;;;7.93;;
36653;SDS011;22650;49.350;20.898;2023-01-28T11:44:26;22.70;;;9.27;;
36653;SDS011;22650;49.350;20.898;2023-01-28T11:50:08;17.95;;;7.65;;
36653;SDS011;22650;49.350;20.898;2023-01-28T11:52:59;25.05;;;9.30;;
36653;SDS011;22650;49.350;20.898;2023-01-28T11:55:51;23.15;;;9.98;;
36653;SDS011;22650;49.350;20.898;2023-01-28T11:58:36;22.70;;;9.30;;
36653;SDS011;22650;49.350;20.898;2023-01-28T12:01:20;25.90;;;10.40;;
36653;SDS011;22650;49.350;20.898;2023-01-28T12:04:15;18.67;;;7.80;;
36653;SDS011;22650;49.350;20.898;2023-01-28T12:07:00;33.08;;;12.00;;
36653;SDS011;22650;49.350;20.898;2023-01-28T12:09:48;26.83;;;10.20;;
36653;SDS011;22650;49.350;20.898;2023-01-28T12:12:41;23.23;;;9.27;;
36653;SDS011;22650;49.350;20.898;2023-01-28T12:18:27;19.75;;;8.63;;
36653;SDS011;22650;49.350;20.898;2023-01-28T12:21:21;18.85;;;9.43;;
36653;SDS011;22650;49.350;20.898;2023-01-28T12:24:12;21.65;;;8.27;;
36653;SDS011;22650;49.350;20.898;2023-01-28T12:26:54;21.98;;;9.70;;
36653;SDS011;22650;49.350;20.898;2023-01-28T12:29:40;32.03;;;11.77;;
36653;SDS011;22650;49.350;20.898;2023-01-28T12:32:24;17.67;;;8.02;;
36653;SDS011;22650;49.350;20.898;2023-01-28T12:35:16;22.25;;;8.45;;
36653;SDS011;22650;49.350;20.898;2023-01-28T12:38:07;21.95;;;8.70;;
36653;SDS011;22650;49.350;20.898;2023-01-28T12:40:58;23.73;;;8.00;;
36653;SDS011;22650;49.350;20.898;2023-01-28T12:43:42;20.42;;;8.00;;
36653;SDS011;22650;49.350;20.898;2023-01-28T12:46:24;19.63;;;7.75;;
36653;SDS011;22650;49.350;20.898;2023-01-28T12:49:08;23.48;;;8.90;;
36653;SDS011;22650;49.350;20.898;2023-01-28T12:51:51;14.68;;;6.72;;
36653;SDS011;22650;49.350;20.898;2023-01-28T12:54:34;19.73;;;7.68;;
36653;SDS011;22650;49.350;20.898;2023-01-28T12:57:13;15.25;;;7.20;;
36653;SDS011;22650;49.350;20.898;2023-01-28T13:02:31;22.35;;;9.57;;
36653;SDS011;22650;49.350;20.898;2023-01-28T13:05:09;20.15;;;10.40;;
36653;SDS011;22650;49.350;20.898;2023-01-28T13:07:47;22.75;;;9.77;;
36653;SDS011;22650;49.350;20.898;2023-01-28T13:10:26;15.32;;;7.35;;
36653;SDS011;22650;49.350;20.898;2023-01-28T13:13:02;25.13;;;9.75;;
36653;SDS011;22650;49.350;20.898;2023-01-28T13:15:38;18.13;;;8.85;;
36653;SDS011;22650;49.350;20.898;2023-01-28T13:18:30;24.13;;;8.52;;
36653;SDS011;22650;49.350;20.898;2023-01-28T13:21:08;20.33;;;8.65;;
36653;SDS011;22650;49.350;20.898;2023-01-28T13:23:47;16.92;;;7.65;;
36653;SDS011;22650;49.350;20.898;2023-01-28T13:26:27;25.48;;;9.65;;
36653;SDS011;22650;49.350;20.898;2023-01-28T13:29:08;20.40;;;8.18;;
36653;SDS011;22650;49.350;20.898;2023-01-28T13:31:52;27.05;;;9.80;;
36653;SDS011;22650;49.350;20.898;2023-01-28T13:34:31;29.02;;;12.02;;
36653;SDS011;22650;49.350;20.898;2023-01-28T13:37:14;34.83;;;14.93;;
36653;SDS011;22650;49.350;20.898;2023-01-28T13:39:54;30.33;;;11.95;;
36653;SDS011;22650;49.350;20.898;2023-01-28T13:42:32;21.13;;;9.20;;
36653;SDS011;22650;49.350;20.898;2023-01-28T13:45:21;26.80;;;10.93;;
36653;SDS011;22650;49.350;20.898;2023-01-28T13:47:57;28.98;;;11.23;;
36653;SDS011;22650;49.350;20.898;2023-01-28T13:50:39;27.33;;;11.20;;
36653;SDS011;22650;49.350;20.898;2023-01-28T13:53:16;30.42;;;10.73;;
36653;SDS011;22650;49.350;20.898;2023-01-28T13:55:57;23.95;;;10.18;;
36653;SDS011;22650;49.350;20.898;2023-01-28T14:01:52;25.05;;;10.63;;
36653;SDS011;22650;49.350;20.898;2023-01-28T14:04:55;72.55;;;26.88;;
36653;SDS011;22650;49.350;20.898;2023-01-28T14:11:02;59.70;;;21.92;;
36653;SDS011;22650;49.350;20.898;2023-01-28T14:13:56;63.60;;;19.88;;
36653;SDS011;22650;49.350;20.898;2023-01-28T14:16:49;37.28;;;14.77;;
36653;SDS011;22650;49.350;20.898;2023-01-28T14:19:31;34.70;;;13.07;;
36653;SDS011;22650;49.350;20.898;2023-01-28T14:22:08;35.25;;;12.02;;
36653;SDS011;22650;49.350;20.898;2023-01-28T14:24:45;33.03;;;13.27;;
36653;SDS011;22650;49.350;20.898;2023-01-28T14:27:20;36.25;;;14.20;;
36653;SDS011;22650;49.350;20.898;2023-01-28T14:30:02;43.08;;;16.77;;
36653;SDS011;22650;49.350;20.898;2023-01-28T14:32:45;40.88;;;13.88;;
36653;SDS011;22650;49.350;20.898;2023-01-28T14:35:23;28.30;;;12.55;;
36653;SDS011;22650;49.350;20.898;2023-01-28T14:38:04;33.08;;;13.02;;
36653;SDS011;22650;49.350;20.898;2023-01-28T14:40:41;32.70;;;12.10;;
36653;SDS011;22650;49.350;20.898;2023-01-28T14:43:15;35.25;;;13.57;;
36653;SDS011;22650;49.350;20.898;2023-01-28T14:45:57;36.33;;;14.23;;
36653;SDS011;22650;49.350;20.898;2023-01-28T14:48:42;30.67;;;13.43;;
36653;SDS011;22650;49.350;20.898;2023-01-28T14:51:30;26.77;;;11.95;;
36653;SDS011;22650;49.350;20.898;2023-01-28T14:57:29;35.13;;;13.73;;
36653;SDS011;22650;49.350;20.898;2023-01-28T15:00:15;37.33;;;14.73;;
36653;SDS011;22650;49.350;20.898;2023-01-28T15:02:51;37.05;;;15.63;;
36653;SDS011;22650;49.350;20.898;2023-01-28T15:05:27;71.35;;;27.42;;
36653;SDS011;22650;49.350;20.898;2023-01-28T15:08:02;45.20;;;18.50;;
36653;SDS011;22650;49.350;20.898;2023-01-28T15:10:36;36.30;;;15.23;;
36653;SDS011;22650;49.350;20.898;2023-01-28T15:13:12;75.07;;;23.83;;
36653;SDS011;22650;49.350;20.898;2023-01-28T15:15:51;34.17;;;13.57;;
36653;SDS011;22650;49.350;20.898;2023-01-28T15:18:32;28.83;;;12.65;;
36653;SDS011;22650;49.350;20.898;2023-01-28T15:21:09;31.77;;;13.27;;
36653;SDS011;22650;49.350;20.898;2023-01-28T15:23:43;29.52;;;12.27;;
36653;SDS011;22650;49.350;20.898;2023-01-28T15:26:20;23.90;;;10.32;;
36653;SDS011;22650;49.350;20.898;2023-01-28T15:28:56;31.90;;;12.43;;
36653;SDS011;22650;49.350;20.898;2023-01-28T15:31:31;26.70;;;11.27;;
36653;SDS011;22650;49.350;20.898;2023-01-28T15:34:10;25.90;;;10.13;;
36653;SDS011;22650;49.350;20.898;2023-01-28T15:36:47;29.70;;;12.73;;
36653;SDS011;22650;49.350;20.898;2023-01-28T15:39:22;23.33;;;10.90;;
36653;SDS011;22650;49.350;20.898;2023-01-28T15:41:58;26.13;;;10.00;;
36653;SDS011;22650;49.350;20.898;2023-01-28T15:44:34;23.40;;;9.32;;
36653;SDS011;22650;49.350;20.898;2023-01-28T15:47:13;22.27;;;10.63;;
36653;SDS011;22650;49.350;20.898;2023-01-28T15:49:50;25.95;;;10.15;;
36653;SDS011;22650;49.350;20.898;2023-01-28T15:52:29;28.00;;;10.57;;
36653;SDS011;22650;49.350;20.898;2023-01-28T15:55:07;32.40;;;11.52;;
36653;SDS011;22650;49.350;20.898;2023-01-28T15:58:27;35.15;;;12.90;;
36653;SDS011;22650;49.350;20.898;2023-01-28T16:01:03;27.05;;;12.05;;
36653;SDS011;22650;49.350;20.898;2023-01-28T16:03:58;32.00;;;13.48;;
36653;SDS011;22650;49.350;20.898;2023-01-28T16:06:34;33.85;;;13.07;;
36653;SDS011;22650;49.350;20.898;2023-01-28T16:09:16;28.77;;;12.38;;
36653;SDS011;22650;49.350;20.898;2023-01-28T16:12:00;26.55;;;10.98;;
36653;SDS011;22650;49.350;20.898;2023-01-28T16:14:39;33.72;;;12.00;;
36653;SDS011;22650;49.350;20.898;2023-01-28T16:17:16;35.42;;;13.57;;
36653;SDS011;22650;49.350;20.898;2023-01-28T16:19:55;31.13;;;11.68;;
36653;SDS011;22650;49.350;20.898;2023-01-28T16:22:32;35.58;;;13.38;;
36653;SDS011;22650;49.350;20.898;2023-01-28T16:28:12;25.65;;;10.50;;
36653;SDS011;22650;49.350;20.898;2023-01-28T16:30:51;28.10;;;12.20;;
36653;SDS011;22650;49.350;20.898;2023-01-28T16:33:25;33.28;;;12.13;;
36653;SDS011;22650;49.350;20.898;2023-01-28T16:35:59;31.30;;;12.57;;
36653;SDS011;22650;49.350;20.898;2023-01-28T16:38:39;32.40;;;12.82;;
36653;SDS011;22650;49.350;20.898;2023-01-28T16:41:13;28.63;;;11.07;;
36653;SDS011;22650;49.350;20.898;2023-01-28T16:43:53;29.00;;;12.40;;
36653;SDS011;22650;49.350;20.898;2023-01-28T16:46:27;25.00;;;10.55;;
36653;SDS011;22650;49.350;20.898;2023-01-28T16:49:01;28.65;;;11.60;;
36653;SDS011;22650;49.350;20.898;2023-01-28T16:51:35;36.08;;;14.15;;
36653;SDS011;22650;49.350;20.898;2023-01-28T16:54:11;36.58;;;14.98;;